sensor_id;sensor_type;location;lat;lon;timestamp;pressure;altitude;pressure_sealevel;temperature;humidity
21956;BME280;11142;49.930;8.606;2023-02-27T00:00:31;100895.03;;;-1.12;100.00
21956;BME280;11142;49.930;8.606;2023-02-27T00:02:59;100902.66;;;-1.19;100.00
21956;BME280;11142;49.930;8.606;2023-02-27T00:05:27;100891.66;;;-1.24;100.00
21956;BME280;11142;49.930;8.606;2023-02-27T00:07:55;100895.91;;;-1.32;100.00
21956;BME280;11142;49.930;8.606;2023-02-27T00:10:23;100900.19;;;-1.37;100.00
21956;BME280;11142;49.930;8.606;2023-02-27T00:12:51;100899.34;;;-1.44;100.00
21956;BME280;11142;49.930;8.606;2023-02-27T00:15:20;100897.63;;;-1.40;100.00
21956;BME280;11142;49.930;8.606;2023-02-27T00:17:49;100894.22;;;-1.35;100.00
21956;BME280;11142;49.930;8.606;2023-02-27T00:20:17;100894.25;;;-1.44;100.00
21956;BME280;11142;49.930;8.606;2023-02-27T00:22:46;100896.81;;;-1.50;100.00
21956;BME280;11142;49.930;8.606;2023-02-27T00:25:14;100893.41;;;-1.55;100.00
21956;BME280;11142;49.930;8.606;2023-02-27T00:27:42;100895.13;;;-1.55;100.00
21956;BME280;11142;49.930;8.606;2023-02-27T00:30:11;100883.25;;;-1.56;100.00
21956;BME280;11142;49.930;8.606;2023-02-27T00:32:42;100884.09;;;-1.57;100.00
21956;BME280;11142;49.930;8.606;2023-02-27T00:35:11;100889.19;;;-1.57;100.00
21956;BME280;11142;49.930;8.606;2023-02-27T00:37:39;100888.34;;;-1.59;100.00
21956;BME280;11142;49.930;8.606;2023-02-27T00:40:08;100888.31;;;-1.58;100.00
21956;BME280;11142;49.930;8.606;2023-02-27T00:42:36;100886.66;;;-1.65;100.00
21956;BME280;11142;49.930;8.606;2023-02-27T00:45:06;100884.94;;;-1.54;100.00
21956;BME280;11142;49.930;8.606;2023-02-27T00:47:34;100890.84;;;-1.52;100.00
21956;BME280;11142;49.930;8.606;2023-02-27T00:50:04;100890.03;;;-1.57;100.00
21956;BME280;11142;49.930;8.606;2023-02-27T00:52:31;100890.88;;;-1.64;100.00
21956;BME280;11142;49.930;8.606;2023-02-27T00:55:00;100890.03;;;-1.62;100.00
21956;BME280;11142;49.930;8.606;2023-02-27T00:57:28;100890.03;;;-1.66;100.00
21956;BME280;11142;49.930;8.606;2023-02-27T00:59:56;100895.97;;;-1.64;100.00
21956;BME280;11142;49.930;8.606;2023-02-27T01:02:23;100892.59;;;-1.63;100.00
21956;BME280;11142;49.930;8.606;2023-02-27T01:04:54;100898.47;;;-1.49;100.00
21956;BME280;11142;49.930;8.606;2023-02-27T01:07:23;100890.88;;;-1.56;100.00
21956;BME280;11142;49.930;8.606;2023-02-27T01:09:52;100901.91;;;-1.56;100.00
21956;BME280;11142;49.930;8.606;2023-02-27T01:12:19;100895.97;;;-1.50;100.00
21956;BME280;11142;49.930;8.606;2023-02-27T01:14:47;100887.47;;;-1.51;100.00
21956;BME280;11142;49.930;8.606;2023-02-27T01:17:16;100886.63;;;-1.54;100.00
21956;BME280;11142;49.930;8.606;2023-02-27T01:19:43;100890.03;;;-1.49;100.00
21956;BME280;11142;49.930;8.606;2023-02-27T01:22:11;100897.66;;;-1.49;100.00
21956;BME280;11142;49.930;8.606;2023-02-27T01:24:41;100895.09;;;-1.51;100.00
21956;BME280;11142;49.930;8.606;2023-02-27T01:27:09;100890.03;;;-1.57;100.00
21956;BME280;11142;49.930;8.606;2023-02-27T01:29:37;100887.50;;;-1.55;100.00
21956;BME280;11142;49.930;8.606;2023-02-27T01:32:04;100899.34;;;-1.51;100.00
21956;BME280;11142;49.930;8.606;2023-02-27T01:34:32;100890.03;;;-1.57;100.00
21956;BME280;11142;49.930;8.606;2023-02-27T01:37:00;100890.84;;;-1.41;100.00
21956;BME280;11142;49.930;8.606;2023-02-27T01:39:29;100896.81;;;-1.54;100.00
21956;BME280;11142;49.930;8.606;2023-02-27T01:41:59;100888.31;;;-1.55;100.00
21956;BME280;11142;49.930;8.606;2023-02-27T01:44:28;100894.25;;;-1.48;100.00
21956;BME280;11142;49.930;8.606;2023-02-27T01:46:56;100893.41;;;-1.55;100.00
21956;BME280;11142;49.930;8.606;2023-02-27T01:49:26;100890.03;;;-1.55;100.00
21956;BME280;11142;49.930;8.606;2023-02-27T01:51:57;100893.41;;;-1.55;100.00
21956;BME280;11142;49.930;8.606;2023-02-27T01:54:28;100884.94;;;-1.51;100.00
21956;BME280;11142;49.930;8.606;2023-02-27T01:57:04;100883.25;;;-1.56;100.00
21956;BME280;11142;49.930;8.606;2023-02-27T01:59:33;100886.66;;;-1.56;100.00
21956;BME280;11142;49.930;8.606;2023-02-27T02:02:01;100882.41;;;-1.57;100.00
21956;BME280;11142;49.930;8.606;2023-02-27T02:04:33;100883.22;;;-1.58;100.00
21956;BME280;11142;49.930;8.606;2023-02-27T02:07:04;100885.78;;;-1.53;100.00
21956;BME280;11142;49.930;8.606;2023-02-27T02:09:36;100884.06;;;-1.51;100.00
21956;BME280;11142;49.930;8.606;2023-02-27T02:12:07;100876.44;;;-1.54;100.00
21956;BME280;11142;49.930;8.606;2023-02-27T02:14:36;100885.75;;;-1.49;100.00
21956;BME280;11142;49.930;8.606;2023-02-27T02:17:07;100875.59;;;-1.55;100.00
21956;BME280;11142;49.930;8.606;2023-02-27T02:19:52;100864.56;;;-1.48;100.00
21956;BME280;11142;49.930;8.606;2023-02-27T02:22:31;100875.59;;;-1.49;100.00
21956;BME280;11142;49.930;8.606;2023-02-27T02:25:15;100882.41;;;-1.49;100.00
21956;BME280;11142;49.930;8.606;2023-02-27T02:27:52;100880.66;;;-1.49;100.00
21956;BME280;11142;49.930;8.606;2023-02-27T02:36:18;100895.09;;;-1.48;100.00
21956;BME280;11142;49.930;8.606;2023-02-27T02:41:43;100894.28;;;-1.53;100.00
21956;BME280;11142;49.930;8.606;2023-02-27T02:44:17;100893.41;;;-1.61;100.00
21956;BME280;11142;49.930;8.606;2023-02-27T02:46:47;100888.31;;;-1.55;100.00
21956;BME280;11142;49.930;8.606;2023-02-27T02:49:22;100896.81;;;-1.59;100.00
21956;BME280;11142;49.930;8.606;2023-02-27T02:51:58;100894.28;;;-1.56;100.00
21956;BME280;11142;49.930;8.606;2023-02-27T02:54:29;100887.47;;;-1.65;100.00
21956;BME280;11142;49.930;8.606;2023-02-27T02:57:04;100886.66;;;-1.68;100.00
21956;BME280;11142;49.930;8.606;2023-02-27T02:59:35;100890.91;;;-1.78;100.00
21956;BME280;11142;49.930;8.606;2023-02-27T03:02:06;100892.59;;;-1.77;100.00
21956;BME280;11142;49.930;8.606;2023-02-27T03:04:37;100894.25;;;-1.71;100.00
21956;BME280;11142;49.930;8.606;2023-02-27T03:07:08;100895.13;;;-1.66;100.00
21956;BME280;11142;49.930;8.606;2023-02-27T03:09:37;100900.22;;;-1.69;100.00
21956;BME280;11142;49.930;8.606;2023-02-27T03:12:09;100902.78;;;-1.72;100.00
21956;BME280;11142;49.930;8.606;2023-02-27T03:14:39;100898.53;;;-1.76;100.00
21956;BME280;11142;49.930;8.606;2023-02-27T03:17:13;100902.75;;;-1.77;100.00
21956;BME280;11142;49.930;8.606;2023-02-27T03:19:43;100903.59;;;-1.67;100.00
21956;BME280;11142;49.930;8.606;2023-02-27T03:22:14;100911.22;;;-1.70;100.00
21956;BME280;11142;49.930;8.606;2023-02-27T03:24:46;100907.00;;;-1.73;100.00
21956;BME280;11142;49.930;8.606;2023-02-27T03:27:17;100905.31;;;-1.77;100.00
21956;BME280;11142;49.930;8.606;2023-02-27T03:29:48;100904.44;;;-1.77;100.00
21956;BME280;11142;49.930;8.606;2023-02-27T03:32:17;100912.06;;;-1.71;100.00
21956;BME280;11142;49.930;8.606;2023-02-27T03:34:49;100907.84;;;-1.69;100.00
21956;BME280;11142;49.930;8.606;2023-02-27T03:37:21;100906.16;;;-1.75;100.00
21956;BME280;11142;49.930;8.606;2023-02-27T03:39:57;100902.75;;;-1.77;100.00
21956;BME280;11142;49.930;8.606;2023-02-27T03:42:31;100917.19;;;-1.76;100.00
21956;BME280;11142;49.930;8.606;2023-02-27T03:45:22;100906.16;;;-1.85;100.00
21956;BME280;11142;49.930;8.606;2023-02-27T03:47:53;100907.00;;;-1.86;100.00
21956;BME280;11142;49.930;8.606;2023-02-27T03:50:22;100917.16;;;-1.92;100.00
21956;BME280;11142;49.930;8.606;2023-02-27T03:52:50;100921.41;;;-1.85;100.00
21956;BME280;11142;49.930;8.606;2023-02-27T03:55:19;100926.50;;;-1.91;100.00
21956;BME280;11142;49.930;8.606;2023-02-27T03:57:54;100923.09;;;-1.89;100.00
21956;BME280;11142;49.930;8.606;2023-02-27T04:00:22;100924.78;;;-1.92;100.00
21956;BME280;11142;49.930;8.606;2023-02-27T04:02:51;100923.09;;;-1.96;100.00
21956;BME280;11142;49.930;8.606;2023-02-27T04:05:23;100924.78;;;-1.92;100.00
21956;BME280;11142;49.930;8.606;2023-02-27T04:08:07;100927.34;;;-1.98;100.00
21956;BME280;11142;49.930;8.606;2023-02-27T04:11:02;100929.03;;;-1.91;100.00
21956;BME280;11142;49.930;8.606;2023-02-27T04:13:49;100931.56;;;-1.87;100.00
21956;BME280;11142;49.930;8.606;2023-02-27T04:16:26;100935.81;;;-1.95;100.00
21956;BME280;11142;49.930;8.606;2023-02-27T04:19:04;100945.16;;;-1.91;100.00
21956;BME280;11142;49.930;8.606;2023-02-27T04:21:40;100943.44;;;-1.92;100.00
21956;BME280;11142;49.930;8.606;2023-02-27T04:24:11;100950.25;;;-1.91;100.00
21956;BME280;11142;49.930;8.606;2023-02-27T04:26:45;100944.31;;;-2.00;100.00
21956;BME280;11142;49.930;8.606;2023-02-27T04:29:21;100939.19;;;-1.96;100.00
21956;BME280;11142;49.930;8.606;2023-02-27T04:31:53;100940.91;;;-1.89;100.00
21956;BME280;11142;49.930;8.606;2023-02-27T04:34:27;100940.88;;;-2.02;100.00
21956;BME280;11142;49.930;8.606;2023-02-27T04:36:58;100956.16;;;-1.99;100.00
21956;BME280;11142;49.930;8.606;2023-02-27T04:39:29;100949.38;;;-2.02;100.00
21956;BME280;11142;49.930;8.606;2023-02-27T04:41:59;100950.25;;;-2.00;100.00
21956;BME280;11142;49.930;8.606;2023-02-27T04:44:29;100951.91;;;-2.09;100.00
21956;BME280;11142;49.930;8.606;2023-02-27T04:46:59;100957.00;;;-2.06;100.00
21956;BME280;11142;49.930;8.606;2023-02-27T04:49:30;100956.13;;;-2.11;100.00
21956;BME280;11142;49.930;8.606;2023-02-27T04:52:01;100958.69;;;-2.10;100.00
21956;BME280;11142;49.930;8.606;2023-02-27T04:54:31;100960.38;;;-2.13;100.00
21956;BME280;11142;49.930;8.606;2023-02-27T04:57:01;100967.13;;;-2.17;100.00
21956;BME280;11142;49.930;8.606;2023-02-27T04:59:33;100963.75;;;-2.19;100.00
21956;BME280;11142;49.930;8.606;2023-02-27T05:02:05;100971.34;;;-2.24;100.00
21956;BME280;11142;49.930;8.606;2023-02-27T05:04:36;100962.91;;;-2.23;100.00
21956;BME280;11142;49.930;8.606;2023-02-27T05:07:07;100965.44;;;-2.18;100.00
21956;BME280;11142;49.930;8.606;2023-02-27T05:09:37;100966.28;;;-2.27;100.00
21956;BME280;11142;49.930;8.606;2023-02-27T05:12:09;100968.78;;;-2.33;100.00
21956;BME280;11142;49.930;8.606;2023-02-27T05:14:44;100968.78;;;-2.31;100.00
21956;BME280;11142;49.930;8.606;2023-02-27T05:17:17;100965.41;;;-2.32;100.00
21956;BME280;11142;49.930;8.606;2023-02-27T05:19:46;100965.41;;;-2.30;100.00
21956;BME280;11142;49.930;8.606;2023-02-27T05:22:19;100971.31;;;-2.34;100.00
21956;BME280;11142;49.930;8.606;2023-02-27T05:24:51;100957.75;;;-2.42;100.00
21956;BME280;11142;49.930;8.606;2023-02-27T05:27:22;100963.72;;;-2.36;100.00
21956;BME280;11142;49.930;8.606;2023-02-27T05:29:55;100964.53;;;-2.44;100.00
21956;BME280;11142;49.930;8.606;2023-02-27T05:32:30;100971.31;;;-2.42;100.00
21956;BME280;11142;49.930;8.606;2023-02-27T05:35:00;100966.19;;;-2.49;100.00
21956;BME280;11142;49.930;8.606;2023-02-27T05:37:35;100976.38;;;-2.43;100.00
21956;BME280;11142;49.930;8.606;2023-02-27T05:40:06;100976.38;;;-2.45;100.00
21956;BME280;11142;49.930;8.606;2023-02-27T05:42:37;100976.38;;;-2.48;100.00
21956;BME280;11142;49.930;8.606;2023-02-27T05:45:11;100988.25;;;-2.45;100.00
21956;BME280;11142;49.930;8.606;2023-02-27T05:47:40;100992.44;;;-2.47;100.00
21956;BME280;11142;49.930;8.606;2023-02-27T05:50:11;100994.94;;;-2.56;100.00
21956;BME280;11142;49.930;8.606;2023-02-27T05:52:40;100994.94;;;-2.59;100.00
21956;BME280;11142;49.930;8.606;2023-02-27T05:55:10;100989.84;;;-2.59;100.00
21956;BME280;11142;49.930;8.606;2023-02-27T05:57:44;100982.25;;;-2.53;100.00
21956;BME280;11142;49.930;8.606;2023-02-27T06:00:16;100984.81;;;-2.58;100.00
21956;BME280;11142;49.930;8.606;2023-02-27T06:02:46;100988.16;;;-2.59;100.00
21956;BME280;11142;49.930;8.606;2023-02-27T06:05:16;100991.59;;;-2.51;100.00
21956;BME280;11142;49.930;8.606;2023-02-27T06:07:45;100998.34;;;-2.53;100.00
21956;BME280;11142;49.930;8.606;2023-02-27T06:10:14;100993.28;;;-2.50;100.00
21956;BME280;11142;49.930;8.606;2023-02-27T06:12:46;101008.56;;;-2.45;100.00
21956;BME280;11142;49.930;8.606;2023-02-27T06:15:15;101002.66;;;-2.41;100.00
21956;BME280;11142;49.930;8.606;2023-02-27T06:17:45;101009.41;;;-2.45;100.00
21956;BME280;11142;49.930;8.606;2023-02-27T06:20:13;101006.91;;;-2.33;100.00
21956;BME280;11142;49.930;8.606;2023-02-27T06:22:42;101012.88;;;-2.29;100.00
21956;BME280;11142;49.930;8.606;2023-02-27T06:25:20;101017.09;;;-2.27;100.00
21956;BME280;11142;49.930;8.606;2023-02-27T06:27:48;101026.41;;;-2.27;100.00
21956;BME280;11142;49.930;8.606;2023-02-27T06:30:18;101028.13;;;-2.26;100.00
21956;BME280;11142;49.930;8.606;2023-02-27T06:32:46;101032.31;;;-2.31;100.00
21956;BME280;11142;49.930;8.606;2023-02-27T06:35:17;101030.63;;;-2.31;100.00
21956;BME280;11142;49.930;8.606;2023-02-27T06:37:46;101029.78;;;-2.30;100.00
21956;BME280;11142;49.930;8.606;2023-02-27T06:40:14;101038.28;;;-2.25;100.00
21956;BME280;11142;49.930;8.606;2023-02-27T06:42:43;101034.09;;;-2.17;100.00
21956;BME280;11142;49.930;8.606;2023-02-27T06:45:14;101040.00;;;-2.15;100.00
21956;BME280;11142;49.930;8.606;2023-02-27T06:47:45;101042.56;;;-2.05;100.00
21956;BME280;11142;49.930;8.606;2023-02-27T06:50:13;101049.38;;;-1.95;100.00
21956;BME280;11142;49.930;8.606;2023-02-27T06:52:41;101045.16;;;-1.92;100.00
21956;BME280;11142;49.930;8.606;2023-02-27T06:55:09;101047.75;;;-1.81;100.00
21956;BME280;11142;49.930;8.606;2023-02-27T06:57:39;101039.28;;;-1.76;100.00
21956;BME280;11142;49.930;8.606;2023-02-27T07:00:08;101047.75;;;-1.71;100.00
21956;BME280;11142;49.930;8.606;2023-02-27T07:02:37;101051.19;;;-1.53;100.00
21956;BME280;11142;49.930;8.606;2023-02-27T07:05:07;101042.69;;;-1.36;100.00
21956;BME280;11142;49.930;8.606;2023-02-27T07:07:36;101053.72;;;-1.20;100.00
21956;BME280;11142;49.930;8.606;2023-02-27T07:10:05;101051.16;;;-0.91;100.00
21956;BME280;11142;49.930;8.606;2023-02-27T07:12:34;101040.13;;;-0.87;100.00
21956;BME280;11142;49.930;8.606;2023-02-27T07:15:05;101052.88;;;-0.96;100.00
21956;BME280;11142;49.930;8.606;2023-02-27T07:17:33;101055.41;;;-0.99;100.00
21956;BME280;11142;49.930;8.606;2023-02-27T07:20:01;101056.28;;;-0.99;100.00
21956;BME280;11142;49.930;8.606;2023-02-27T07:22:31;101057.06;;;-0.64;100.00
21956;BME280;11142;49.930;8.606;2023-02-27T07:24:59;101064.69;;;-0.62;100.00
21956;BME280;11142;49.930;8.606;2023-02-27T07:27:27;101054.41;;;-0.38;100.00
21956;BME280;11142;49.930;8.606;2023-02-27T07:29:55;101059.50;;;-0.27;100.00
21956;BME280;11142;49.930;8.606;2023-02-27T07:32:24;101051.94;;;-0.48;100.00
21956;BME280;11142;49.930;8.606;2023-02-27T07:34:52;101045.81;;;-0.13;100.00
21956;BME280;11142;49.930;8.606;2023-02-27T07:37:20;101055.16;;;-0.04;100.00
21956;BME280;11142;49.930;8.606;2023-02-27T07:39:49;101049.22;;;-0.12;100.00
21956;BME280;11142;49.930;8.606;2023-02-27T07:42:17;101057.59;;;0.16;100.00
21956;BME280;11142;49.930;8.606;2023-02-27T07:44:45;101064.25;;;0.41;98.53
21956;BME280;11142;49.930;8.606;2023-02-27T07:47:13;101043.66;;;0.64;96.78
21956;BME280;11142;49.930;8.606;2023-02-27T07:49:43;101047.97;;;0.56;95.63
21956;BME280;11142;49.930;8.606;2023-02-27T07:52:13;101054.97;;;0.28;99.35
21956;BME280;11142;49.930;8.606;2023-02-27T07:54:41;101055.72;;;0.42;99.94
21956;BME280;11142;49.930;8.606;2023-02-27T07:57:11;101062.69;;;0.19;100.00
21956;BME280;11142;49.930;8.606;2023-02-27T07:59:39;101069.44;;;0.27;100.00
21956;BME280;11142;49.930;8.606;2023-02-27T08:02:08;101060.94;;;0.24;100.00
21956;BME280;11142;49.930;8.606;2023-02-27T08:04:36;101063.84;;;0.92;95.90
21956;BME280;11142;49.930;8.606;2023-02-27T08:07:04;101075.19;;;0.60;94.04
21956;BME280;11142;49.930;8.606;2023-02-27T08:09:33;101075.03;;;0.81;92.72
21956;BME280;11142;49.930;8.606;2023-02-27T08:12:02;101069.13;;;0.76;93.47
21956;BME280;11142;49.930;8.606;2023-02-27T08:14:31;101065.34;;;1.15;90.54
21956;BME280;11142;49.930;8.606;2023-02-27T08:16:59;101066.41;;;0.92;90.55
21956;BME280;11142;49.930;8.606;2023-02-27T08:19:27;101076.59;;;0.95;88.43
21956;BME280;11142;49.930;8.606;2023-02-27T08:21:55;101062.19;;;0.88;88.40
21956;BME280;11142;49.930;8.606;2023-02-27T08:24:23;101063.81;;;0.95;89.26
21956;BME280;11142;49.930;8.606;2023-02-27T08:26:52;101071.31;;;1.17;87.09
21956;BME280;11142;49.930;8.606;2023-02-27T08:29:20;101070.53;;;1.07;86.67
21956;BME280;11142;49.930;8.606;2023-02-27T08:31:49;101073.97;;;1.04;88.87
21956;BME280;11142;49.930;8.606;2023-02-27T08:34:17;101069.53;;;1.22;86.46
21956;BME280;11142;49.930;8.606;2023-02-27T08:36:45;101079.09;;;1.04;87.30
21956;BME280;11142;49.930;8.606;2023-02-27T08:39:13;101084.16;;;1.09;87.26
21956;BME280;11142;49.930;8.606;2023-02-27T08:41:40;101049.22;;;1.08;87.41
21956;BME280;11142;49.930;8.606;2023-02-27T08:44:09;101080.97;;;0.81;89.57
21956;BME280;11142;49.930;8.606;2023-02-27T08:46:37;101082.19;;;1.34;85.58
21956;BME280;11142;49.930;8.606;2023-02-27T08:49:06;101074.75;;;1.13;85.82
21956;BME280;11142;49.930;8.606;2023-02-27T08:51:34;101076.97;;;1.46;85.39
21956;BME280;11142;49.930;8.606;2023-02-27T08:54:02;101087.91;;;1.62;83.45
21956;BME280;11142;49.930;8.606;2023-02-27T08:56:30;101084.53;;;1.58;84.47
21956;BME280;11142;49.930;8.606;2023-02-27T08:59:01;101081.28;;;1.42;84.87
21956;BME280;11142;49.930;8.606;2023-02-27T09:01:28;101075.44;;;2.04;80.39
21956;BME280;11142;49.930;8.606;2023-02-27T09:04:00;101082.75;;;2.32;80.27
21956;BME280;11142;49.930;8.606;2023-02-27T09:06:30;101083.88;;;2.72;75.43
21956;BME280;11142;49.930;8.606;2023-02-27T09:08:58;101074.09;;;2.39;73.49
21956;BME280;11142;49.930;8.606;2023-02-27T09:11:28;101080.03;;;2.42;73.05
21956;BME280;11142;49.930;8.606;2023-02-27T09:13:57;101084.69;;;2.14;74.50
21956;BME280;11142;49.930;8.606;2023-02-27T09:16:25;101079.13;;;2.45;75.02
21956;BME280;11142;49.930;8.606;2023-02-27T09:18:54;101101.22;;;1.88;74.42
21956;BME280;11142;49.930;8.606;2023-02-27T09:21:22;101091.44;;;2.20;71.26
21956;BME280;11142;49.930;8.606;2023-02-27T09:23:52;101087.13;;;2.25;71.01
21956;BME280;11142;49.930;8.606;2023-02-27T09:26:20;101091.94;;;2.45;69.63
21956;BME280;11142;49.930;8.606;2023-02-27T09:29:06;101075.94;;;2.31;69.17
21956;BME280;11142;49.930;8.606;2023-02-27T09:31:34;101092.69;;;2.53;69.68
21956;BME280;11142;49.930;8.606;2023-02-27T09:34:02;101088.66;;;2.92;66.93
21956;BME280;11142;49.930;8.606;2023-02-27T09:36:30;101096.88;;;3.12;64.65
21956;BME280;11142;49.930;8.606;2023-02-27T09:38:59;101098.25;;;2.79;65.73
21956;BME280;11142;49.930;8.606;2023-02-27T09:44:16;101100.38;;;3.55;61.92
21956;BME280;11142;49.930;8.606;2023-02-27T09:47:02;101088.94;;;3.73;59.07
21956;BME280;11142;49.930;8.606;2023-02-27T09:49:31;101105.38;;;3.63;60.55
21956;BME280;11142;49.930;8.606;2023-02-27T09:52:01;101111.94;;;4.19;59.17
21956;BME280;11142;49.930;8.606;2023-02-27T09:54:30;101098.19;;;4.61;55.32
21956;BME280;11142;49.930;8.606;2023-02-27T09:57:02;101107.47;;;3.87;57.40
21956;BME280;11142;49.930;8.606;2023-02-27T09:59:33;101092.31;;;4.18;56.81
21956;BME280;11142;49.930;8.606;2023-02-27T10:02:05;101119.00;;;4.49;55.12
21956;BME280;11142;49.930;8.606;2023-02-27T10:04:39;101119.88;;;4.87;53.86
21956;BME280;11142;49.930;8.606;2023-02-27T10:07:13;101125.47;;;4.67;53.74
21956;BME280;11142;49.930;8.606;2023-02-27T10:09:48;101128.91;;;3.85;54.46
21956;BME280;11142;49.930;8.606;2023-02-27T10:12:25;101117.91;;;4.21;54.84
21956;BME280;11142;49.930;8.606;2023-02-27T10:14:56;101108.34;;;5.69;52.12
21956;BME280;11142;49.930;8.606;2023-02-27T10:17:27;101109.94;;;7.16;47.43
21956;BME280;11142;49.930;8.606;2023-02-27T10:19:55;101115.47;;;5.92;48.23
21956;BME280;11142;49.930;8.606;2023-02-27T10:22:29;101119.38;;;5.42;50.01
21956;BME280;11142;49.930;8.606;2023-02-27T10:25:04;101110.22;;;5.95;49.21
21956;BME280;11142;49.930;8.606;2023-02-27T10:27:54;101119.72;;;5.60;51.91
21956;BME280;11142;49.930;8.606;2023-02-27T10:30:25;101122.09;;;5.68;50.55
21956;BME280;11142;49.930;8.606;2023-02-27T10:33:00;101113.97;;;6.43;47.60
21956;BME280;11142;49.930;8.606;2023-02-27T10:35:42;101112.25;;;6.44;47.78
21956;BME280;11142;49.930;8.606;2023-02-27T10:38:22;101115.97;;;6.04;47.68
21956;BME280;11142;49.930;8.606;2023-02-27T10:40:55;101119.13;;;5.51;48.81
21956;BME280;11142;49.930;8.606;2023-02-27T10:43:24;101117.50;;;6.11;49.09
21956;BME280;11142;49.930;8.606;2023-02-27T10:45:52;101118.31;;;7.23;45.34
21956;BME280;11142;49.930;8.606;2023-02-27T10:48:20;101115.13;;;6.88;46.95
21956;BME280;11142;49.930;8.606;2023-02-27T10:50:49;101118.28;;;7.97;44.68
21956;BME280;11142;49.930;8.606;2023-02-27T10:53:20;101114.38;;;8.33;43.16
21956;BME280;11142;49.930;8.606;2023-02-27T10:55:57;101111.84;;;8.32;42.76
21956;BME280;11142;49.930;8.606;2023-02-27T10:58:27;101114.50;;;8.06;41.42
21956;BME280;11142;49.930;8.606;2023-02-27T11:01:01;101111.41;;;7.73;44.90
21956;BME280;11142;49.930;8.606;2023-02-27T11:03:31;101098.81;;;9.99;40.94
21956;BME280;11142;49.930;8.606;2023-02-27T11:06:00;101084.47;;;9.13;40.59
21956;BME280;11142;49.930;8.606;2023-02-27T11:08:31;101099.31;;;5.85;45.07
21956;BME280;11142;49.930;8.606;2023-02-27T11:11:01;101096.66;;;5.23;48.97
21956;BME280;11142;49.930;8.606;2023-02-27T11:13:31;101089.47;;;7.84;44.53
21956;BME280;11142;49.930;8.606;2023-02-27T11:16:01;101090.06;;;7.68;43.40
21956;BME280;11142;49.930;8.606;2023-02-27T11:18:29;101089.78;;;8.45;43.08
21956;BME280;11142;49.930;8.606;2023-02-27T11:21:14;101085.06;;;8.78;41.01
21956;BME280;11142;49.930;8.606;2023-02-27T11:23:50;101082.66;;;7.82;43.39
21956;BME280;11142;49.930;8.606;2023-02-27T11:26:21;101060.28;;;8.27;42.54
21956;BME280;11142;49.930;8.606;2023-02-27T11:29:02;101086.88;;;6.58;45.93
21956;BME280;11142;49.930;8.606;2023-02-27T11:31:30;101084.44;;;6.53;45.83
21956;BME280;11142;49.930;8.606;2023-02-27T11:34:00;101074.22;;;8.23;43.01
21956;BME280;11142;49.930;8.606;2023-02-27T11:36:37;101076.34;;;8.12;42.23
21956;BME280;11142;49.930;8.606;2023-02-27T11:39:15;101056.13;;;8.23;41.90
21956;BME280;11142;49.930;8.606;2023-02-27T11:41:49;101059.41;;;8.28;41.58
21956;BME280;11142;49.930;8.606;2023-02-27T11:44:18;101058.44;;;10.14;38.84
21956;BME280;11142;49.930;8.606;2023-02-27T11:47:11;101075.59;;;10.17;38.79
21956;BME280;11142;49.930;8.606;2023-02-27T11:49:43;101057.69;;;9.53;39.49
21956;BME280;11142;49.930;8.606;2023-02-27T11:52:16;101047.78;;;9.81;38.25
21956;BME280;11142;49.930;8.606;2023-02-27T11:54:57;101063.34;;;9.02;40.46
21956;BME280;11142;49.930;8.606;2023-02-27T11:57:31;101092.00;;;7.86;40.41
21956;BME280;11142;49.930;8.606;2023-02-27T12:00:03;101067.38;;;6.21;43.53
21956;BME280;11142;49.930;8.606;2023-02-27T12:02:44;101064.81;;;7.02;42.06
21956;BME280;11142;49.930;8.606;2023-02-27T12:05:15;101057.72;;;6.82;42.31
21956;BME280;11142;49.930;8.606;2023-02-27T12:07:47;101066.69;;;5.84;45.08
21956;BME280;11142;49.930;8.606;2023-02-27T12:10:20;101059.03;;;7.44;42.76
21956;BME280;11142;49.930;8.606;2023-02-27T12:12:51;101067.06;;;5.40;45.69
21956;BME280;11142;49.930;8.606;2023-02-27T12:15:22;101062.13;;;5.95;47.64
21956;BME280;11142;49.930;8.606;2023-02-27T12:17:53;101048.81;;;8.98;40.46
21956;BME280;11142;49.930;8.606;2023-02-27T12:20:29;101057.66;;;8.50;41.84
21956;BME280;11142;49.930;8.606;2023-02-27T12:23:00;101026.47;;;8.97;39.36
21956;BME280;11142;49.930;8.606;2023-02-27T12:25:33;101041.03;;;9.58;38.57
21956;BME280;11142;49.930;8.606;2023-02-27T12:28:07;101031.34;;;9.82;37.24
21956;BME280;11142;49.930;8.606;2023-02-27T12:30:41;101030.38;;;10.58;36.82
21956;BME280;11142;49.930;8.606;2023-02-27T12:33:12;101024.13;;;10.07;36.51
21956;BME280;11142;49.930;8.606;2023-02-27T12:35:43;101031.06;;;10.07;36.74
21956;BME280;11142;49.930;8.606;2023-02-27T12:38:14;101032.28;;;8.60;39.96
21956;BME280;11142;49.930;8.606;2023-02-27T12:40:44;101020.41;;;10.85;37.09
21956;BME280;11142;49.930;8.606;2023-02-27T12:48:51;101023.13;;;14.18;30.37
21956;BME280;11142;49.930;8.606;2023-02-27T12:51:30;101027.38;;;13.36;31.52
21956;BME280;11142;49.930;8.606;2023-02-27T12:54:04;101031.16;;;14.96;29.82
21956;BME280;11142;49.930;8.606;2023-02-27T12:56:40;101021.25;;;13.65;30.51
21956;BME280;11142;49.930;8.606;2023-02-27T12:59:14;101012.44;;;13.10;31.28
21956;BME280;11142;49.930;8.606;2023-02-27T13:01:50;101023.38;;;12.10;32.24
21956;BME280;11142;49.930;8.606;2023-02-27T13:04:24;101016.81;;;11.87;32.84
21956;BME280;11142;49.930;8.606;2023-02-27T13:06:56;101017.16;;;11.64;33.67
21956;BME280;11142;49.930;8.606;2023-02-27T13:09:30;101022.41;;;10.97;33.86
21956;BME280;11142;49.930;8.606;2023-02-27T13:12:02;101011.06;;;10.46;34.96
21956;BME280;11142;49.930;8.606;2023-02-27T13:14:40;101014.03;;;10.01;35.46
21956;BME280;11142;49.930;8.606;2023-02-27T13:17:16;101008.56;;;10.26;35.57
21956;BME280;11142;49.930;8.606;2023-02-27T13:19:48;101007.09;;;10.39;34.00
21956;BME280;11142;49.930;8.606;2023-02-27T13:22:19;101016.13;;;10.31;33.51
21956;BME280;11142;49.930;8.606;2023-02-27T13:24:50;101005.22;;;10.24;33.59